sensor_id;sensor_type;location;lat;lon;timestamp;pressure;altitude;pressure_sealevel;temperature;humidity
12676;BME280;63820;65.654;21.944;2024-02-15T00:01:28;101842.22;;;-8.11;100.00
12676;BME280;63820;65.654;21.944;2024-02-15T00:04:12;101843.72;;;-8.15;100.00
12676;BME280;63820;65.654;21.944;2024-02-15T00:06:56;101834.81;;;-8.08;100.00
12676;BME280;63820;65.654;21.944;2024-02-15T00:09:40;101835.84;;;-8.05;100.00
12676;BME280;63820;65.654;21.944;2024-02-15T00:12:24;101834.19;;;-8.04;100.00
12676;BME280;63820;65.654;21.944;2024-02-15T00:15:08;101829.47;;;-7.98;100.00
12676;BME280;63820;65.654;21.944;2024-02-15T00:17:53;101836.25;;;-7.97;100.00
12676;BME280;63820;65.654;21.944;2024-02-15T00:20:37;101829.78;;;-7.92;100.00
12676;BME280;63820;65.654;21.944;2024-02-15T00:23:22;101836.97;;;-8.00;100.00
12676;BME280;63820;65.654;21.944;2024-02-15T00:26:06;101816.59;;;-8.03;100.00
12676;BME280;63820;65.654;21.944;2024-02-15T00:28:51;101826.00;;;-8.00;100.00
12676;BME280;63820;65.654;21.944;2024-02-15T00:31:35;101832.16;;;-7.95;100.00
12676;BME280;63820;65.654;21.944;2024-02-15T00:34:22;101832.06;;;-7.97;100.00
12676;BME280;63820;65.654;21.944;2024-02-15T00:37:06;101817.09;;;-7.94;100.00
12676;BME280;63820;65.654;21.944;2024-02-15T00:39:51;101823.66;;;-7.81;100.00
12676;BME280;63820;65.654;21.944;2024-02-15T00:42:35;101824.28;;;-7.85;100.00
12676;BME280;63820;65.654;21.944;2024-02-15T00:45:19;101829.75;;;-7.77;100.00
12676;BME280;63820;65.654;21.944;2024-02-15T00:48:04;101825.06;;;-7.86;100.00
12676;BME280;63820;65.654;21.944;2024-02-15T00:50:50;101829.72;;;-7.94;100.00
12676;BME280;63820;65.654;21.944;2024-02-15T00:53:34;101831.06;;;-7.84;100.00
12676;BME280;63820;65.654;21.944;2024-02-15T00:56:18;101835.41;;;-7.81;100.00
12676;BME280;63820;65.654;21.944;2024-02-15T00:59:02;101839.50;;;-7.83;100.00
12676;BME280;63820;65.654;21.944;2024-02-15T01:01:47;101839.69;;;-7.80;100.00
12676;BME280;63820;65.654;21.944;2024-02-15T01:04:32;101841.09;;;-7.69;100.00
12676;BME280;63820;65.654;21.944;2024-02-15T01:07:16;101843.78;;;-7.66;100.00
12676;BME280;63820;65.654;21.944;2024-02-15T01:10:00;101837.72;;;-7.70;100.00
12676;BME280;63820;65.654;21.944;2024-02-15T01:12:44;101840.00;;;-7.74;100.00
12676;BME280;63820;65.654;21.944;2024-02-15T01:15:28;101841.28;;;-7.66;100.00
12676;BME280;63820;65.654;21.944;2024-02-15T01:18:12;101839.44;;;-7.69;100.00
12676;BME280;63820;65.654;21.944;2024-02-15T01:20:56;101833.22;;;-7.75;100.00
12676;BME280;63820;65.654;21.944;2024-02-15T01:23:40;101834.94;;;-7.74;100.00
12676;BME280;63820;65.654;21.944;2024-02-15T01:26:25;101829.28;;;-7.70;100.00
12676;BME280;63820;65.654;21.944;2024-02-15T01:29:09;101830.53;;;-7.62;100.00
12676;BME280;63820;65.654;21.944;2024-02-15T01:31:55;101827.69;;;-7.68;100.00
12676;BME280;63820;65.654;21.944;2024-02-15T01:34:40;101823.25;;;-7.72;100.00
12676;BME280;63820;65.654;21.944;2024-02-15T01:37:24;101819.94;;;-7.71;100.00
12676;BME280;63820;65.654;21.944;2024-02-15T01:40:08;101816.63;;;-7.70;100.00
12676;BME280;63820;65.654;21.944;2024-02-15T01:42:56;101812.53;;;-7.52;100.00
12676;BME280;63820;65.654;21.944;2024-02-15T01:45:42;101815.38;;;-7.62;100.00
12676;BME280;63820;65.654;21.944;2024-02-15T01:48:26;101812.53;;;-7.52;100.00
12676;BME280;63820;65.654;21.944;2024-02-15T01:51:12;101810.47;;;-7.59;100.00
12676;BME280;63820;65.654;21.944;2024-02-15T01:53:56;101806.47;;;-7.55;100.00
12676;BME280;63820;65.654;21.944;2024-02-15T01:56:40;101806.84;;;-7.48;100.00
12676;BME280;63820;65.654;21.944;2024-02-15T01:59:25;101804.00;;;-7.54;100.00
12676;BME280;63820;65.654;21.944;2024-02-15T02:02:10;101802.59;;;-7.49;100.00
12676;BME280;63820;65.654;21.944;2024-02-15T02:04:56;101807.94;;;-7.43;100.00
12676;BME280;63820;65.654;21.944;2024-02-15T02:07:41;101801.63;;;-7.35;100.00
12676;BME280;63820;65.654;21.944;2024-02-15T02:10:25;101804.72;;;-7.40;100.00
12676;BME280;63820;65.654;21.944;2024-02-15T02:13:11;101795.84;;;-7.32;100.00
12676;BME280;63820;65.654;21.944;2024-02-15T02:15:55;101794.91;;;-7.34;100.00
12676;BME280;63820;65.654;21.944;2024-02-15T02:18:40;101803.75;;;-7.42;100.00
12676;BME280;63820;65.654;21.944;2024-02-15T02:21:28;101805.72;;;-7.37;100.00
12676;BME280;63820;65.654;21.944;2024-02-15T02:24:14;101804.72;;;-7.40;100.00
12676;BME280;63820;65.654;21.944;2024-02-15T02:27:07;101800.44;;;-7.41;100.00
12676;BME280;63820;65.654;21.944;2024-02-15T02:29:52;101798.00;;;-7.40;100.00
12676;BME280;63820;65.654;21.944;2024-02-15T02:32:36;101799.72;;;-7.39;100.00
12676;BME280;63820;65.654;21.944;2024-02-15T02:35:22;101789.78;;;-7.36;100.00
12676;BME280;63820;65.654;21.944;2024-02-15T02:38:07;101794.75;;;-7.37;100.00
12676;BME280;63820;65.654;21.944;2024-02-15T02:40:51;101793.44;;;-7.47;100.00
12676;BME280;63820;65.654;21.944;2024-02-15T02:43:35;101788.69;;;-7.41;100.00
12676;BME280;63820;65.654;21.944;2024-02-15T02:46:19;101794.38;;;-7.45;100.00
12676;BME280;63820;65.654;21.944;2024-02-15T02:49:03;101787.34;;;-7.34;100.00
12676;BME280;63820;65.654;21.944;2024-02-15T02:51:47;101782.91;;;-7.38;100.00
12676;BME280;63820;65.654;21.944;2024-02-15T02:54:31;101783.72;;;-7.21;100.00
12676;BME280;63820;65.654;21.944;2024-02-15T02:57:15;101782.44;;;-7.31;100.00
12676;BME280;63820;65.654;21.944;2024-02-15T02:59:59;101778.66;;;-7.39;100.00
12676;BME280;63820;65.654;21.944;2024-02-15T03:02:43;101781.56;;;-7.32;100.00
12676;BME280;63820;65.654;21.944;2024-02-15T03:05:27;101788.03;;;-7.37;100.00
12676;BME280;63820;65.654;21.944;2024-02-15T03:08:14;101782.69;;;-7.43;100.00
12676;BME280;63820;65.654;21.944;2024-02-15T03:10:57;101785.50;;;-7.37;100.00
12676;BME280;63820;65.654;21.944;2024-02-15T03:13:42;101783.16;;;-7.34;100.00
12676;BME280;63820;65.654;21.944;2024-02-15T03:16:27;101785.59;;;-7.35;100.00
12676;BME280;63820;65.654;21.944;2024-02-15T03:19:11;101782.50;;;-7.30;100.00
12676;BME280;63820;65.654;21.944;2024-02-15T03:21:55;101782.91;;;-7.38;100.00
12676;BME280;63820;65.654;21.944;2024-02-15T03:24:39;101791.38;;;-7.38;100.00
12676;BME280;63820;65.654;21.944;2024-02-15T03:27:23;101778.97;;;-7.33;100.00
12676;BME280;63820;65.654;21.944;2024-02-15T03:30:08;101784.88;;;-7.33;100.00
12676;BME280;63820;65.654;21.944;2024-02-15T03:32:53;101777.56;;;-7.27;100.00
12676;BME280;63820;65.654;21.944;2024-02-15T03:35:37;101778.97;;;-7.33;100.00
12676;BME280;63820;65.654;21.944;2024-02-15T03:38:21;101783.88;;;-7.18;100.00
12676;BME280;63820;65.654;21.944;2024-02-15T03:41:05;101775.34;;;-7.20;100.00
12676;BME280;63820;65.654;21.944;2024-02-15T03:43:50;101773.38;;;-7.26;100.00
12676;BME280;63820;65.654;21.944;2024-02-15T03:46:34;101779.22;;;-7.27;100.00
12676;BME280;63820;65.654;21.944;2024-02-15T03:49:18;101782.06;;;-7.21;100.00
12676;BME280;63820;65.654;21.944;2024-02-15T03:52:03;101778.81;;;-7.18;100.00
12676;BME280;63820;65.654;21.944;2024-02-15T03:54:48;101778.97;;;-7.15;100.00
12676;BME280;63820;65.654;21.944;2024-02-15T03:57:33;101779.53;;;-7.21;100.00
12676;BME280;63820;65.654;21.944;2024-02-15T04:00:18;101778.50;;;-7.25;100.00
12676;BME280;63820;65.654;21.944;2024-02-15T04:03:04;101785.03;;;-7.12;100.00
12676;BME280;63820;65.654;21.944;2024-02-15T04:05:48;101774.84;;;-7.13;100.00
12676;BME280;63820;65.654;21.944;2024-02-15T04:08:32;101771.38;;;-7.15;100.00
12676;BME280;63820;65.654;21.944;2024-02-15T04:11:17;101782.91;;;-7.04;100.00
12676;BME280;63820;65.654;21.944;2024-02-15T04:14:03;101773.50;;;-7.07;100.00
12676;BME280;63820;65.654;21.944;2024-02-15T04:16:47;101771.75;;;-7.08;100.00
12676;BME280;63820;65.654;21.944;2024-02-15T04:19:32;101767.88;;;-7.01;100.00
12676;BME280;63820;65.654;21.944;2024-02-15T04:22:16;101771.34;;;-6.99;100.00
12676;BME280;63820;65.654;21.944;2024-02-15T04:25:00;101772.06;;;-7.02;100.00
12676;BME280;63820;65.654;21.944;2024-02-15T04:27:45;101773.16;;;-6.97;100.00
12676;BME280;63820;65.654;21.944;2024-02-15T04:30:31;101771.91;;;-7.05;100.00
12676;BME280;63820;65.654;21.944;2024-02-15T04:33:16;101773.66;;;-7.04;100.00
12676;BME280;63820;65.654;21.944;2024-02-15T04:36:00;101770.53;;;-6.98;100.00
12676;BME280;63820;65.654;21.944;2024-02-15T04:38:51;101758.84;;;-6.96;100.00
12676;BME280;63820;65.654;21.944;2024-02-15T04:41:35;101765.63;;;-6.95;100.00
12676;BME280;63820;65.654;21.944;2024-02-15T04:44:19;101764.19;;;-6.90;100.00
12676;BME280;63820;65.654;21.944;2024-02-15T04:47:11;101768.91;;;-6.80;100.00
12676;BME280;63820;65.654;21.944;2024-02-15T04:49:55;101766.31;;;-6.81;100.00
12676;BME280;63820;65.654;21.944;2024-02-15T04:52:39;101770.72;;;-6.77;100.00
12676;BME280;63820;65.654;21.944;2024-02-15T04:55:22;101766.44;;;-6.78;100.00
12676;BME280;63820;65.654;21.944;2024-02-15T04:58:06;101766.66;;;-6.74;100.00
12676;BME280;63820;65.654;21.944;2024-02-15T05:00:54;101765.28;;;-6.67;100.00
12676;BME280;63820;65.654;21.944;2024-02-15T05:03:46;101766.31;;;-6.64;100.00
12676;BME280;63820;65.654;21.944;2024-02-15T05:06:30;101765.38;;;-6.66;100.00
12676;BME280;63820;65.654;21.944;2024-02-15T05:09:16;101769.63;;;-6.65;100.00
12676;BME280;63820;65.654;21.944;2024-02-15T05:12:02;101760.31;;;-6.66;100.00
12676;BME280;63820;65.654;21.944;2024-02-15T05:14:46;101765.16;;;-6.52;100.00
12676;BME280;63820;65.654;21.944;2024-02-15T05:17:30;101757.06;;;-6.63;100.00
12676;BME280;63820;65.654;21.944;2024-02-15T05:20:15;101758.00;;;-6.61;100.00
12676;BME280;63820;65.654;21.944;2024-02-15T05:23:00;101752.28;;;-6.57;100.00
12676;BME280;63820;65.654;21.944;2024-02-15T05:25:47;101757.34;;;-6.57;100.00
12676;BME280;63820;65.654;21.944;2024-02-15T05:28:31;101748.44;;;-6.49;100.00
12676;BME280;63820;65.654;21.944;2024-02-15T05:31:22;101746.78;;;-6.48;100.00
12676;BME280;63820;65.654;21.944;2024-02-15T05:34:10;101745.03;;;-6.49;100.00
12676;BME280;63820;65.654;21.944;2024-02-15T05:36:56;101753.16;;;-6.56;100.00
12676;BME280;63820;65.654;21.944;2024-02-15T05:39:40;101741.66;;;-6.50;100.00
12676;BME280;63820;65.654;21.944;2024-02-15T05:42:25;101753.72;;;-6.44;100.00
12676;BME280;63820;65.654;21.944;2024-02-15T05:45:40;101742.00;;;-6.42;100.00
12676;BME280;63820;65.654;21.944;2024-02-15T05:48:24;101748.94;;;-6.38;100.00
12676;BME280;63820;65.654;21.944;2024-02-15T05:51:08;101750.38;;;-6.43;100.00
12676;BME280;63820;65.654;21.944;2024-02-15T05:53:52;101746.41;;;-6.38;100.00
12676;BME280;63820;65.654;21.944;2024-02-15T05:56:42;101739.59;;;-6.39;100.00
12676;BME280;63820;65.654;21.944;2024-02-15T05:59:26;101749.72;;;-6.39;100.00
12676;BME280;63820;65.654;21.944;2024-02-15T06:02:11;101746.13;;;-6.44;100.00
12676;BME280;63820;65.654;21.944;2024-02-15T06:04:55;101754.88;;;-6.38;100.00
12676;BME280;63820;65.654;21.944;2024-02-15T06:07:45;101748.22;;;-6.36;100.00
12676;BME280;63820;65.654;21.944;2024-02-15T06:10:30;101755.94;;;-6.33;100.00
12676;BME280;63820;65.654;21.944;2024-02-15T06:13:14;101749.72;;;-6.39;100.00
12676;BME280;63820;65.654;21.944;2024-02-15T06:15:58;101764.91;;;-6.39;100.00
12676;BME280;63820;65.654;21.944;2024-02-15T06:18:42;101762.66;;;-6.33;100.00
12676;BME280;63820;65.654;21.944;2024-02-15T06:21:27;101759.06;;;-6.38;100.00
12676;BME280;63820;65.654;21.944;2024-02-15T06:24:12;101770.91;;;-6.37;100.00
12676;BME280;63820;65.654;21.944;2024-02-15T06:26:57;101770.63;;;-6.43;100.00
12676;BME280;63820;65.654;21.944;2024-02-15T06:29:44;101772.13;;;-6.29;100.00
12676;BME280;63820;65.654;21.944;2024-02-15T06:32:46;101774.03;;;-6.43;100.00
12676;BME280;63820;65.654;21.944;2024-02-15T06:35:49;101779.59;;;-6.32;100.00
12676;BME280;63820;65.654;21.944;2024-02-15T06:38:52;101775.19;;;-6.36;100.00
12676;BME280;63820;65.654;21.944;2024-02-15T06:41:55;101776.13;;;-6.34;100.00
12676;BME280;63820;65.654;21.944;2024-02-15T06:44:40;101761.66;;;-6.37;100.00
12676;BME280;63820;65.654;21.944;2024-02-15T06:47:24;101772.66;;;-6.36;100.00
12676;BME280;63820;65.654;21.944;2024-02-15T06:50:10;101772.66;;;-6.36;100.00
12676;BME280;63820;65.654;21.944;2024-02-15T06:52:55;101767.00;;;-6.31;100.00
12676;BME280;63820;65.654;21.944;2024-02-15T06:55:40;101775.41;;;-6.32;100.00
12676;BME280;63820;65.654;21.944;2024-02-15T06:58:24;101764.78;;;-6.23;100.00
12676;BME280;63820;65.654;21.944;2024-02-15T07:01:08;101776.94;;;-6.16;100.00
12676;BME280;63820;65.654;21.944;2024-02-15T07:03:52;101773.31;;;-6.21;100.00
12676;BME280;63820;65.654;21.944;2024-02-15T07:06:37;101770.00;;;-6.20;100.00
12676;BME280;63820;65.654;21.944;2024-02-15T07:09:21;101769.41;;;-6.14;100.00
12676;BME280;63820;65.654;21.944;2024-02-15T07:12:07;101775.34;;;-6.14;100.00
12676;BME280;63820;65.654;21.944;2024-02-15T07:14:51;101779.34;;;-6.00;100.00
12676;BME280;63820;65.654;21.944;2024-02-15T07:17:36;101774.56;;;-5.94;100.00
12676;BME280;63820;65.654;21.944;2024-02-15T07:20:24;101768.00;;;-5.88;100.00
12676;BME280;63820;65.654;21.944;2024-02-15T07:23:08;101773.13;;;-5.87;100.00
12676;BME280;63820;65.654;21.944;2024-02-15T07:25:52;101774.50;;;-5.95;100.00
12676;BME280;63820;65.654;21.944;2024-02-15T07:28:37;101780.50;;;-5.93;100.00
12676;BME280;63820;65.654;21.944;2024-02-15T07:31:22;101778.13;;;-5.88;100.00
12676;BME280;63820;65.654;21.944;2024-02-15T07:34:07;101771.81;;;-5.79;100.00
12676;BME280;63820;65.654;21.944;2024-02-15T07:36:51;101772.03;;;-5.94;100.00
12676;BME280;63820;65.654;21.944;2024-02-15T07:39:35;101773.19;;;-5.85;100.00
12676;BME280;63820;65.654;21.944;2024-02-15T07:42:20;101774.34;;;-5.79;100.00
12676;BME280;63820;65.654;21.944;2024-02-15T07:45:04;101770.19;;;-5.77;100.00
12676;BME280;63820;65.654;21.944;2024-02-15T07:47:50;101770.00;;;-5.81;100.00
12676;BME280;63820;65.654;21.944;2024-02-15T07:50:34;101776.06;;;-5.78;100.00
12676;BME280;63820;65.654;21.944;2024-02-15T07:53:21;101770.81;;;-5.82;100.00
12676;BME280;63820;65.654;21.944;2024-02-15T07:56:05;101774.00;;;-5.86;100.00
12676;BME280;63820;65.654;21.944;2024-02-15T07:58:49;101770.66;;;-5.85;100.00
12676;BME280;63820;65.654;21.944;2024-02-15T08:01:35;101773.19;;;-5.85;100.00
12676;BME280;63820;65.654;21.944;2024-02-15T08:04:20;101767.66;;;-5.77;100.00
12676;BME280;63820;65.654;21.944;2024-02-15T08:07:08;101768.41;;;-5.79;100.00
12676;BME280;63820;65.654;21.944;2024-02-15T08:09:54;101770.28;;;-5.75;100.00
12676;BME280;63820;65.654;21.944;2024-02-15T08:12:45;101769.53;;;-5.73;100.00
12676;BME280;63820;65.654;21.944;2024-02-15T08:15:30;101769.75;;;-5.68;100.00
12676;BME280;63820;65.654;21.944;2024-02-15T08:18:14;101773.53;;;-5.78;100.00
12676;BME280;63820;65.654;21.944;2024-02-15T08:20:58;101772.66;;;-5.78;100.00
12676;BME280;63820;65.654;21.944;2024-02-15T08:23:42;101778.47;;;-5.81;100.00
12676;BME280;63820;65.654;21.944;2024-02-15T08:26:26;101779.53;;;-5.76;100.00
12676;BME280;63820;65.654;21.944;2024-02-15T08:29:11;101773.47;;;-5.79;100.00
12676;BME280;63820;65.654;21.944;2024-02-15T08:31:55;101780.94;;;-5.63;100.00
12676;BME280;63820;65.654;21.944;2024-02-15T08:34:39;101778.19;;;-5.68;100.00
12676;BME280;63820;65.654;21.944;2024-02-15T08:37:23;101779.13;;;-5.66;100.00
12676;BME280;63820;65.654;21.944;2024-02-15T08:40:09;101782.75;;;-5.61;100.00
12676;BME280;63820;65.654;21.944;2024-02-15T08:42:58;101774.13;;;-5.64;100.00
12676;BME280;63820;65.654;21.944;2024-02-15T08:45:43;101781.75;;;-5.64;100.00
12676;BME280;63820;65.654;21.944;2024-02-15T08:48:27;101775.75;;;-5.66;100.00
12676;BME280;63820;65.654;21.944;2024-02-15T08:51:11;101777.59;;;-5.62;100.00
12676;BME280;63820;65.654;21.944;2024-02-15T08:53:56;101774.66;;;-5.52;100.00
12676;BME280;63820;65.654;21.944;2024-02-15T08:56:40;101781.06;;;-5.60;100.00
12676;BME280;63820;65.654;21.944;2024-02-15T08:59:24;101779.47;;;-5.58;100.00
12676;BME280;63820;65.654;21.944;2024-02-15T09:02:08;101778.25;;;-5.47;100.00
12676;BME280;63820;65.654;21.944;2024-02-15T09:04:52;101775.66;;;-5.48;100.00
12676;BME280;63820;65.654;21.944;2024-02-15T09:07:36;101787.19;;;-5.36;100.00
12676;BME280;63820;65.654;21.944;2024-02-15T09:10:21;101789.53;;;-5.19;100.00
12676;BME280;63820;65.654;21.944;2024-02-15T09:13:08;101780.31;;;-5.17;100.00
12676;BME280;63820;65.654;21.944;2024-02-15T09:15:52;101787.94;;;-5.17;100.00
12676;BME280;63820;65.654;21.944;2024-02-15T09:18:36;101786.72;;;-5.06;100.00
12676;BME280;63820;65.654;21.944;2024-02-15T09:21:21;101785.09;;;-5.04;100.00
12676;BME280;63820;65.654;21.944;2024-02-15T09:24:05;101786.59;;;-4.88;100.00
12676;BME280;63820;65.654;21.944;2024-02-15T09:26:50;101780.03;;;-5.04;100.00
12676;BME280;63820;65.654;21.944;2024-02-15T09:29:34;101784.00;;;-4.90;100.00
12676;BME280;63820;65.654;21.944;2024-02-15T09:32:18;101783.31;;;-4.86;100.00
12676;BME280;63820;65.654;21.944;2024-02-15T09:35:02;101784.25;;;-4.84;100.00
12676;BME280;63820;65.654;21.944;2024-02-15T09:37:47;101779.28;;;-4.81;100.00
12676;BME280;63820;65.654;21.944;2024-02-15T09:40:36;101778.72;;;-4.74;100.00
12676;BME280;63820;65.654;21.944;2024-02-15T09:43:20;101782.25;;;-4.70;100.00
12676;BME280;63820;65.654;21.944;2024-02-15T09:46:05;101778.16;;;-4.67;100.00
12676;BME280;63820;65.654;21.944;2024-02-15T09:48:50;101778.59;;;-4.56;100.00
12676;BME280;63820;65.654;21.944;2024-02-15T09:51:36;101778.81;;;-4.50;100.00
12676;BME280;63820;65.654;21.944;2024-02-15T09:54:21;101780.53;;;-4.71;100.00
12676;BME280;63820;65.654;21.944;2024-02-15T09:57:07;101774.72;;;-4.46;100.00
12676;BME280;63820;65.654;21.944;2024-02-15T09:59:51;101773.25;;;-4.41;100.00
12676;BME280;63820;65.654;21.944;2024-02-15T10:02:38;101770.69;;;-4.41;100.00
12676;BME280;63820;65.654;21.944;2024-02-15T10:05:22;101769.59;;;-4.25;100.00
12676;BME280;63820;65.654;21.944;2024-02-15T10:08:07;101771.72;;;-4.14;100.00
12676;BME280;63820;65.654;21.944;2024-02-15T10:11:10;101771.00;;;-4.34;100.00
12676;BME280;63820;65.654;21.944;2024-02-15T10:14:10;101769.44;;;-4.30;100.00
12676;BME280;63820;65.654;21.944;2024-02-15T10:16:55;101765.03;;;-4.34;100.00
12676;BME280;63820;65.654;21.944;2024-02-15T10:19:39;101764.00;;;-4.39;100.00
12676;BME280;63820;65.654;21.944;2024-02-15T10:22:23;101767.22;;;-4.43;100.00
12676;BME280;63820;65.654;21.944;2024-02-15T10:25:12;101763.16;;;-4.16;100.00
12676;BME280;63820;65.654;21.944;2024-02-15T10:30:51;101759.13;;;-4.11;100.00
12676;BME280;63820;65.654;21.944;2024-02-15T10:33:37;101755.81;;;-4.08;100.00
12676;BME280;63820;65.654;21.944;2024-02-15T10:36:23;101752.19;;;-4.15;100.00
12676;BME280;63820;65.654;21.944;2024-02-15T10:39:15;101754.25;;;-4.29;100.00
12676;BME280;63820;65.654;21.944;2024-02-15T10:42:07;101753.97;;;-4.36;100.00
12676;BME280;63820;65.654;21.944;2024-02-15T10:44:55;101747.59;;;-4.25;100.00
12676;BME280;63820;65.654;21.944;2024-02-15T10:47:39;101747.09;;;-4.39;100.00
12676;BME280;63820;65.654;21.944;2024-02-15T10:50:24;101750.50;;;-4.38;100.00
12676;BME280;63820;65.654;21.944;2024-02-15T10:53:21;101749.28;;;-4.25;100.00
12676;BME280;63820;65.654;21.944;2024-02-15T10:56:15;101750.38;;;-4.41;100.00
12676;BME280;63820;65.654;21.944;2024-02-15T10:59:17;101742.88;;;-4.38;100.00
12676;BME280;63820;65.654;21.944;2024-02-15T11:02:03;101744.19;;;-4.48;100.00
12676;BME280;63820;65.654;21.944;2024-02-15T11:05:01;101747.84;;;-4.41;100.00
12676;BME280;63820;65.654;21.944;2024-02-15T11:07:47;101749.16;;;-4.51;100.00
12676;BME280;63820;65.654;21.944;2024-02-15T11:10:31;101744.94;;;-4.28;100.00
12676;BME280;63820;65.654;21.944;2024-02-15T11:13:15;101743.91;;;-4.33;100.00
12676;BME280;63820;65.654;21.944;2024-02-15T11:16:00;101743.28;;;-4.28;100.00
12676;BME280;63820;65.654;21.944;2024-02-15T11:18:46;101741.94;;;-4.18;100.00
12676;BME280;63820;65.654;21.944;2024-02-15T11:21:54;101746.63;;;-4.05;100.00
12676;BME280;63820;65.654;21.944;2024-02-15T11:24:51;101749.34;;;-4.24;100.00
12676;BME280;63820;65.654;21.944;2024-02-15T11:27:36;101741.56;;;-4.05;100.00
12676;BME280;63820;65.654;21.944;2024-02-15T11:30:31;101734.59;;;-3.86;100.00
12676;BME280;63820;65.654;21.944;2024-02-15T11:33:32;101737.78;;;-3.68;100.00
12676;BME280;63820;65.654;21.944;2024-02-15T11:36:30;101736.59;;;-3.54;100.00
12676;BME280;63820;65.654;21.944;2024-02-15T11:39:58;101734.59;;;-3.86;100.00
12676;BME280;63820;65.654;21.944;2024-02-15T11:42:46;101738.09;;;-4.07;100.00
12676;BME280;63820;65.654;21.944;2024-02-15T11:45:31;101732.69;;;-4.16;100.00
12676;BME280;63820;65.654;21.944;2024-02-15T11:48:22;101736.25;;;-4.11;100.00
12676;BME280;63820;65.654;21.944;2024-02-15T11:51:06;101720.84;;;-4.15;100.00
12676;BME280;63820;65.654;21.944;2024-02-15T11:54:03;101728.09;;;-4.02;100.00
12676;BME280;63820;65.654;21.944;2024-02-15T11:56:54;101725.25;;;-3.87;100.00
12676;BME280;63820;65.654;21.944;2024-02-15T11:59:48;101723.94;;;-3.76;100.00
12676;BME280;63820;65.654;21.944;2024-02-15T12:02:51;101724.56;;;-3.58;100.00
12676;BME280;63820;65.654;21.944;2024-02-15T12:05:55;101735.88;;;-3.50;100.00
12676;BME280;63820;65.654;21.944;2024-02-15T12:08:58;101723.56;;;-3.63;100.00
12676;BME280;63820;65.654;21.944;2024-02-15T12:12:00;101732.22;;;-3.82;100.00
12676;BME280;63820;65.654;21.944;2024-02-15T12:15:04;101730.00;;;-3.73;100.00
12676;BME280;63820;65.654;21.944;2024-02-15T12:18:15;101725.84;;;-3.71;100.00
12676;BME280;63820;65.654;21.944;2024-02-15T12:21:22;101725.06;;;-3.68;100.00
12676;BME280;63820;65.654;21.944;2024-02-15T12:24:08;101718.41;;;-3.88;100.00
12676;BME280;63820;65.654;21.944;2024-02-15T12:27:00;101717.44;;;-3.92;100.00
12676;BME280;63820;65.654;21.944;2024-02-15T12:29:45;101723.19;;;-3.98;100.00
12676;BME280;63820;65.654;21.944;2024-02-15T12:32:31;101716.16;;;-4.05;100.00
12676;BME280;63820;65.654;21.944;2024-02-15T12:35:19;101718.38;;;-3.90;100.00
12676;BME280;63820;65.654;21.944;2024-02-15T12:38:04;101724.59;;;-3.82;100.00
12676;BME280;63820;65.654;21.944;2024-02-15T12:40:52;101719.59;;;-3.55;100.00
12676;BME280;63820;65.654;21.944;2024-02-15T12:43:36;101719.53;;;-3.56;100.00
12676;BME280;63820;65.654;21.944;2024-02-15T12:46:20;101717.00;;;-3.56;100.00
12676;BME280;63820;65.654;21.944;2024-02-15T12:49:27;101707.41;;;-3.40;100.00
12676;BME280;63820;65.654;21.944;2024-02-15T12:52:38;101708.22;;;-3.41;100.00
12676;BME280;63820;65.654;21.944;2024-02-15T12:55:23;101714.81;;;-3.46;100.00
12676;BME280;63820;65.654;21.944;2024-02-15T12:58:14;101709.63;;;-3.49;100.00
12676;BME280;63820;65.654;21.944;2024-02-15T13:00:58;101705.06;;;-3.34;100.00
12676;BME280;63820;65.654;21.944;2024-02-15T13:03:42;101701.69;;;-3.33;100.00
12676;BME280;63820;65.654;21.944;2024-02-15T13:06:26;101685.22;;;-3.44;100.00
12676;BME280;63820;65.654;21.944;2024-02-15T13:09:10;101711.63;;;-3.15;100.00
12676;BME280;63820;65.654;21.944;2024-02-15T13:11:56;101707.28;;;-3.17;100.00
12676;BME280;63820;65.654;21.944;2024-02-15T13:14:42;101709.78;;;-3.19;100.00
12676;BME280;63820;65.654;21.944;2024-02-15T13:17:26;101706.38;;;-3.19;100.00
12676;BME280;63820;65.654;21.944;2024-02-15T13:20:12;101700.06;;;-3.31;100.00
12676;BME280;63820;65.654;21.944;2024-02-15T13:23:02;101697.97;;;-3.17;100.00
12676;BME280;63820;65.654;21.944;2024-02-15T13:25:52;101706.13;;;-3.27;100.00
12676;BME280;63820;65.654;21.944;2024-02-15T13:28:36;101713.59;;;-3.32;100.00
12676;BME280;63820;65.654;21.944;2024-02-15T13:31:20;101704.44;;;-3.26;100.00
12676;BME280;63820;65.654;21.944;2024-02-15T13:34:05;101698.13;;;-3.38;100.00
12676;BME280;63820;65.654;21.944;2024-02-15T13:36:49;101707.41;;;-3.40;100.00
12676;BME280;63820;65.654;21.944;2024-02-15T13:39:33;101701.59;;;-3.36;100.00
12676;BME280;63820;65.654;21.944;2024-02-15T13:42:18;101704.53;;;-3.49;100.00
12676;BME280;63820;65.654;21.944;2024-02-15T13:45:02;101705.25;;;-3.53;100.00
12676;BME280;63820;65.654;21.944;2024-02-15T13:47:46;101715.38;;;-3.54;100.00
12676;BME280;63820;65.654;21.944;2024-02-15T13:50:34;101708.09;;;-3.69;100.00
12676;BME280;63820;65.654;21.944;2024-02-15T13:53:19;101708.03;;;-3.71;100.00
12676;BME280;63820;65.654;21.944;2024-02-15T13:56:03;101706.03;;;-3.79;100.00
12676;BME280;63820;65.654;21.944;2024-02-15T13:58:49;101699.06;;;-3.85;100.00
12676;BME280;63820;65.654;21.944;2024-02-15T14:01:33;101700.63;;;-3.88;100.00
12676;BME280;63820;65.654;21.944;2024-02-15T14:04:17;101707.34;;;-3.90;100.00
12676;BME280;63820;65.654;21.944;2024-02-15T14:07:01;101705.50;;;-3.95;100.00
12676;BME280;63820;65.654;21.944;2024-02-15T14:09:45;101711.19;;;-4.02;100.00
12676;BME280;63820;65.654;21.944;2024-02-15T14:12:29;101711.13;;;-4.03;100.00